PWSweather.com
Personal Weather Stations
Station Observations
STWO1
East Side, Stillwater, OK 74075

East SideStillwater, OK 74075

Lat: 36.1242949, Lon: -97.044042

Elevation: 942

Station Type: Davis VP2

http://stillwaterweather.com

Latest ConditionsUpdated 1:10:01 PM CST Tuesday, Nov 12, 2019
Currently Today's Max Today's Min Today's Average
Temperature 29.5°F-1.4°C 29.5°F-1.4°C 14.9°F-9.5°C 20.0°F-6.7°C
Dew Point 8.1°F-13.3°C 11.5°F-11.4°C 6.9°F-13.9°C 9.9°F-12.3°C
Winds 3.5 mph S5.6 kmh S 4.6 mph -7.4 kmh - - 2.7 mph 4.3 kmh
Wind Gusts 4.6 mph7.4 kmh 11.5 mph18.5 kmh - -
Humidity 40% 81% 39% 66%
Pressure 30.69 in1039.3 mb 30.82 in1043.7 mb 30.69 in1039.3 mb -
Hour Temp Dew Point Humidity Winds Wind Gusts Pressure Precip Precip Rate Daily Precip Total
01:10 PM 29.5°F-1.4°C 8.1°F-13.3°C 40% 3.5 mph S5.6 kmh S 4.6 mph7.4 kmh 30.69 in1039.3 mb - 0.00 in0.0 mm 0.00 in0.0 mm
01:00 PM 28.8°F-1.8°C 6.9°F-13.9°C 39% 2.3 mph N3.7 kmh N 2.3 mph3.7 kmh 30.70 in1039.6 mb - 0.00 in0.0 mm 0.00 in0.0 mm
12:50 PM 28.7°F-1.8°C 8.5°F-13.1°C 42% 2.3 mph NW3.7 kmh NW 4.6 mph7.4 kmh 30.71 in1040.0 mb - 0.00 in0.0 mm 0.00 in0.0 mm
12:40 PM 28.6°F-1.9°C 8.9°F-12.8°C 43% 2.3 mph W3.7 kmh W 6.9 mph11.1 kmh 30.72 in1040.3 mb - 0.00 in0.0 mm 0.00 in0.0 mm
12:30 PM 28.9°F-1.7°C 9.2°F-12.7°C 43% 1.2 mph WNW1.9 kmh WNW 2.3 mph3.7 kmh 30.73 in1040.6 mb - 0.00 in0.0 mm 0.00 in0.0 mm
12:20 PM 28.5°F-1.9°C 10.3°F-12.1°C 46% 2.3 mph SSW3.7 kmh SSW 3.5 mph5.6 kmh 30.73 in1040.6 mb - 0.00 in0.0 mm 0.00 in0.0 mm
12:10 PM 27.7°F-2.4°C 8.5°F-13.1°C 44% 2.3 mph WSW3.7 kmh WSW 3.5 mph5.6 kmh 30.74 in1041.0 mb - 0.00 in0.0 mm 0.00 in0.0 mm
12:00 PM 26.8°F-2.9°C 9.2°F-12.7°C 47% 1.2 mph SW1.9 kmh SW 2.3 mph3.7 kmh 30.75 in1041.3 mb - 0.00 in0.0 mm 0.00 in0.0 mm
11:50 AM 26.3°F-3.2°C 8.3°F-13.2°C 46% 2.3 mph W3.7 kmh W 2.3 mph3.7 kmh 30.76 in1041.7 mb - 0.00 in0.0 mm 0.00 in0.0 mm
11:40 AM 25.9°F-3.4°C 7.9°F-13.4°C 46% 1.2 mph S1.9 kmh S 3.5 mph5.6 kmh 30.76 in1041.7 mb - 0.00 in0.0 mm 0.00 in0.0 mm
11:30 AM 26.6°F-3.0°C 10.0°F-12.2°C 49% 2.3 mph NW3.7 kmh NW 3.5 mph5.6 kmh 30.77 in1042.0 mb - 0.00 in0.0 mm 0.00 in0.0 mm
11:20 AM 26.1°F-3.3°C 7.6°F-13.6°C 45% 2.3 mph NW3.7 kmh NW 3.5 mph5.6 kmh 30.77 in1042.0 mb - 0.00 in0.0 mm 0.00 in0.0 mm
11:10 AM 25.4°F-3.7°C 10.2°F-12.1°C 52% 2.3 mph SSW3.7 kmh SSW 3.5 mph5.6 kmh 30.77 in1042.0 mb - 0.00 in0.0 mm 0.00 in0.0 mm
11:00 AM 24.1°F-4.4°C 9.4°F-12.6°C 53% 1.2 mph W1.9 kmh W 2.3 mph3.7 kmh 30.77 in1042.0 mb - 0.00 in0.0 mm 0.00 in0.0 mm
10:50 AM 24.0°F-4.4°C 8.9°F-12.8°C 52% 1.2 mph NW1.9 kmh NW 4.6 mph7.4 kmh 30.77 in1042.0 mb - 0.00 in0.0 mm 0.00 in0.0 mm
10:40 AM 24.0°F-4.4°C 8.4°F-13.1°C 51% 4.6 mph NNW7.4 kmh NNW 5.8 mph9.3 kmh 30.77 in1042.0 mb - 0.00 in0.0 mm 0.00 in0.0 mm
10:30 AM 23.4°F-4.8°C 8.8°F-12.9°C 53% 4.6 mph NNW7.4 kmh NNW 8.1 mph13.0 kmh 30.77 in1042.0 mb - 0.00 in0.0 mm 0.00 in0.0 mm
10:20 AM 23.0°F-5.0°C 9.6°F-12.4°C 56% 2.3 mph N3.7 kmh N 4.6 mph7.4 kmh 30.77 in1042.0 mb - 0.00 in0.0 mm 0.00 in0.0 mm
10:10 AM 23.6°F-4.7°C 10.1°F-12.2°C 56% 2.3 mph NNW3.7 kmh NNW 3.5 mph5.6 kmh 30.78 in1042.3 mb - 0.00 in0.0 mm 0.00 in0.0 mm
10:00 AM 22.8°F-5.1°C 9.4°F-12.6°C 56% 2.3 mph N3.7 kmh N 5.8 mph9.3 kmh 30.79 in1042.7 mb - 0.00 in0.0 mm 0.00 in0.0 mm
09:50 AM 21.6°F-5.8°C 9.5°F-12.5°C 59% 3.5 mph N5.6 kmh N 4.6 mph7.4 kmh 30.80 in1043.0 mb - 0.00 in0.0 mm 0.00 in0.0 mm
09:40 AM 22.3°F-5.4°C 10.5°F-11.9°C 60% 2.3 mph N3.7 kmh N 8.1 mph13.0 kmh 30.80 in1043.0 mb - 0.00 in0.0 mm 0.00 in0.0 mm
09:30 AM 21.2°F-6.0°C 10.2°F-12.1°C 62% 3.5 mph N5.6 kmh N 4.6 mph7.4 kmh 30.81 in1043.3 mb - 0.00 in0.0 mm 0.00 in0.0 mm
09:20 AM 20.9°F-6.2°C 9.9°F-12.3°C 62% 3.5 mph N5.6 kmh N 4.6 mph7.4 kmh 30.81 in1043.3 mb - 0.00 in0.0 mm 0.00 in0.0 mm
09:10 AM 20.0°F-6.7°C 9.0°F-12.8°C 62% 4.6 mph NNE7.4 kmh NNE 5.8 mph9.3 kmh 30.81 in1043.3 mb - 0.00 in0.0 mm 0.00 in0.0 mm
09:00 AM 19.8°F-6.8°C 10.0°F-12.2°C 65% 3.5 mph NNE5.6 kmh NNE 4.6 mph7.4 kmh 30.81 in1043.3 mb - 0.00 in0.0 mm 0.00 in0.0 mm
08:50 AM 19.9°F-6.7°C 10.7°F-11.8°C 67% 2.3 mph NE3.7 kmh NE 2.3 mph3.7 kmh 30.82 in1043.7 mb - 0.00 in0.0 mm 0.00 in0.0 mm
08:40 AM 19.2°F-7.1°C 10.4°F-12.0°C 68% 2.3 mph N3.7 kmh N 9.2 mph14.8 kmh 30.82 in1043.7 mb - 0.00 in0.0 mm 0.00 in0.0 mm
08:30 AM 18.9°F-7.3°C 9.8°F-12.3°C 67% 4.6 mph NE7.4 kmh NE 8.1 mph13.0 kmh 30.82 in1043.7 mb - 0.00 in0.0 mm 0.00 in0.0 mm
08:20 AM 18.2°F-7.7°C 9.7°F-12.4°C 69% 4.6 mph N7.4 kmh N 4.6 mph7.4 kmh 30.82 in1043.7 mb - 0.00 in0.0 mm 0.00 in0.0 mm
08:10 AM 18.0°F-7.8°C 10.8°F-11.8°C 73% 3.5 mph N5.6 kmh N 8.1 mph13.0 kmh 30.81 in1043.3 mb - 0.00 in0.0 mm 0.00 in0.0 mm
08:00 AM 17.2°F-8.2°C 11.5°F-11.4°C 78% 3.5 mph N5.6 kmh N 4.6 mph7.4 kmh 30.81 in1043.3 mb - 0.00 in0.0 mm 0.00 in0.0 mm
07:50 AM 16.3°F-8.7°C 11.2°F-11.6°C 80% 1.2 mph N1.9 kmh N 3.5 mph5.6 kmh 30.81 in1043.3 mb - 0.00 in0.0 mm 0.00 in0.0 mm
07:40 AM 15.5°F-9.2°C 10.4°F-12.0°C 80% 1.2 mph N1.9 kmh N 3.5 mph5.6 kmh 30.80 in1043.0 mb - 0.00 in0.0 mm 0.00 in0.0 mm
07:30 AM 15.1°F-9.4°C 10.3°F-12.1°C 81% 2.3 mph N3.7 kmh N 3.5 mph5.6 kmh 30.80 in1043.0 mb - 0.00 in0.0 mm 0.00 in0.0 mm
07:20 AM 14.9°F-9.5°C 10.1°F-12.2°C 81% 1.2 mph N1.9 kmh N 1.2 mph1.9 kmh 30.79 in1042.7 mb - 0.00 in0.0 mm 0.00 in0.0 mm
07:10 AM 14.9°F-9.5°C 10.1°F-12.2°C 81% 1.2 mph N1.9 kmh N 3.5 mph5.6 kmh 30.80 in1043.0 mb - 0.00 in0.0 mm 0.00 in0.0 mm
07:00 AM 14.9°F-9.5°C 9.9°F-12.3°C 80% 2.3 mph N3.7 kmh N 2.3 mph3.7 kmh 30.79 in1042.7 mb - 0.00 in0.0 mm 0.00 in0.0 mm
06:50 AM 15.1°F-9.4°C 10.0°F-12.2°C 80% 1.2 mph NNW1.9 kmh NNW 3.5 mph5.6 kmh 30.80 in1043.0 mb - 0.00 in0.0 mm 0.00 in0.0 mm
06:40 AM 15.2°F-9.3°C 9.8°F-12.3°C 79% 1.2 mph N1.9 kmh N 3.5 mph5.6 kmh 30.80 in1043.0 mb - 0.00 in0.0 mm 0.00 in0.0 mm
06:30 AM 15.4°F-9.2°C 10.1°F-12.2°C 79% 1.2 mph N1.9 kmh N 3.5 mph5.6 kmh 30.80 in1043.0 mb - 0.00 in0.0 mm 0.00 in0.0 mm
06:20 AM 15.6°F-9.1°C 10.0°F-12.2°C 78% 1.2 mph N1.9 kmh N 2.3 mph3.7 kmh 30.80 in1043.0 mb - 0.00 in0.0 mm 0.00 in0.0 mm
06:10 AM 15.8°F-9.0°C 9.8°F-12.3°C 77% 2.3 mph N3.7 kmh N 3.5 mph5.6 kmh 30.80 in1043.0 mb - 0.00 in0.0 mm 0.00 in0.0 mm
06:00 AM 15.9°F-8.9°C 10.0°F-12.2°C 77% 2.3 mph N3.7 kmh N 3.5 mph5.6 kmh 30.80 in1043.0 mb - 0.00 in0.0 mm 0.00 in0.0 mm
05:50 AM 16.0°F-8.9°C 10.1°F-12.2°C 77% 2.3 mph N3.7 kmh N 3.5 mph5.6 kmh 30.80 in1043.0 mb - 0.00 in0.0 mm 0.00 in0.0 mm
05:40 AM 16.2°F-8.8°C 10.0°F-12.2°C 76% 1.2 mph N1.9 kmh N 3.5 mph5.6 kmh 30.80 in1043.0 mb - 0.00 in0.0 mm 0.00 in0.0 mm
05:30 AM 16.3°F-8.7°C 10.1°F-12.2°C 76% 1.2 mph NNW1.9 kmh NNW 3.5 mph5.6 kmh 30.80 in1043.0 mb - 0.00 in0.0 mm 0.00 in0.0 mm
05:20 AM 16.4°F-8.7°C 10.2°F-12.1°C 76% 2.3 mph N3.7 kmh N 3.5 mph5.6 kmh 30.80 in1043.0 mb - 0.00 in0.0 mm 0.00 in0.0 mm
05:10 AM 16.5°F-8.6°C 10.3°F-12.1°C 76% 3.5 mph NNW5.6 kmh NNW 3.5 mph5.6 kmh 30.79 in1042.7 mb - 0.00 in0.0 mm 0.00 in0.0 mm
05:00 AM 16.7°F-8.5°C 10.1°F-12.2°C 75% 2.3 mph N3.7 kmh N 3.5 mph5.6 kmh 30.80 in1043.0 mb - 0.00 in0.0 mm 0.00 in0.0 mm
04:50 AM 16.8°F-8.4°C 10.3°F-12.1°C 75% 3.5 mph N5.6 kmh N 4.6 mph7.4 kmh 30.80 in1043.0 mb - 0.00 in0.0 mm 0.00 in0.0 mm
04:40 AM 16.9°F-8.4°C 10.3°F-12.1°C 75% 2.3 mph N3.7 kmh N 4.6 mph7.4 kmh 30.80 in1043.0 mb - 0.00 in0.0 mm 0.00 in0.0 mm
04:30 AM 17.1°F-8.3°C 10.5°F-11.9°C 75% 3.5 mph NNW5.6 kmh NNW 3.5 mph5.6 kmh 30.80 in1043.0 mb - 0.00 in0.0 mm 0.00 in0.0 mm
04:20 AM 17.2°F-8.2°C 10.6°F-11.9°C 75% 3.5 mph N5.6 kmh N 3.5 mph5.6 kmh 30.80 in1043.0 mb - 0.00 in0.0 mm 0.00 in0.0 mm
04:10 AM 17.4°F-8.1°C 10.5°F-11.9°C 74% 2.3 mph N3.7 kmh N 3.5 mph5.6 kmh 30.80 in1043.0 mb - 0.00 in0.0 mm 0.00 in0.0 mm
04:00 AM 17.6°F-8.0°C 10.7°F-11.8°C 74% 3.5 mph NNE5.6 kmh NNE 3.5 mph5.6 kmh 30.80 in1043.0 mb - 0.00 in0.0 mm 0.00 in0.0 mm
03:50 AM 17.8°F-7.9°C 10.6°F-11.9°C 73% 3.5 mph N5.6 kmh N 4.6 mph7.4 kmh 30.80 in1043.0 mb - 0.00 in0.0 mm 0.00 in0.0 mm
03:40 AM 17.8°F-7.9°C 10.6°F-11.9°C 73% 4.6 mph N7.4 kmh N 10.4 mph16.7 kmh 30.80 in1043.0 mb - 0.00 in0.0 mm 0.00 in0.0 mm
03:30 AM 17.8°F-7.9°C 10.9°F-11.7°C 74% 3.5 mph N5.6 kmh N 3.5 mph5.6 kmh 30.80 in1043.0 mb - 0.00 in0.0 mm 0.00 in0.0 mm
03:20 AM 17.8°F-7.9°C 10.9°F-11.7°C 74% 1.2 mph N1.9 kmh N 3.5 mph5.6 kmh 30.80 in1043.0 mb - 0.00 in0.0 mm 0.00 in0.0 mm
03:10 AM 17.9°F-7.8°C 10.7°F-11.8°C 73% 2.3 mph N3.7 kmh N 8.1 mph13.0 kmh 30.80 in1043.0 mb - 0.00 in0.0 mm 0.00 in0.0 mm
03:00 AM 18.0°F-7.8°C 10.8°F-11.8°C 73% 2.3 mph NNE3.7 kmh NNE 3.5 mph5.6 kmh 30.80 in1043.0 mb - 0.00 in0.0 mm 0.00 in0.0 mm
02:50 AM 18.2°F-7.7°C 10.7°F-11.8°C 72% 2.3 mph N3.7 kmh N 3.5 mph5.6 kmh 30.80 in1043.0 mb - 0.00 in0.0 mm 0.00 in0.0 mm
02:40 AM 18.4°F-7.6°C 10.5°F-11.9°C 71% 2.3 mph 3.7 kmh 4.6 mph7.4 kmh 30.80 in1043.0 mb - 0.00 in0.0 mm 0.00 in0.0 mm
02:30 AM 18.5°F-7.5°C 10.6°F-11.9°C 71% 3.5 mph N5.6 kmh N 5.8 mph9.3 kmh 30.80 in1043.0 mb - 0.00 in0.0 mm 0.00 in0.0 mm
02:20 AM 18.3°F-7.6°C 10.5°F-11.9°C 71% 4.6 mph N7.4 kmh N 9.2 mph14.8 kmh 30.80 in1043.0 mb - 0.00 in0.0 mm 0.00 in0.0 mm
02:10 AM 18.4°F-7.6°C 10.6°F-11.9°C 71% 2.3 mph N3.7 kmh N 3.5 mph5.6 kmh 30.79 in1042.7 mb - 0.00 in0.0 mm 0.00 in0.0 mm
02:00 AM 18.5°F-7.5°C 10.3°F-12.1°C 70% 2.3 mph N3.7 kmh N 6.9 mph11.1 kmh 30.79 in1042.7 mb - 0.00 in0.0 mm 0.00 in0.0 mm
01:50 AM 18.7°F-7.4°C 10.5°F-11.9°C 70% 2.3 mph 3.7 kmh 3.5 mph5.6 kmh 30.79 in1042.7 mb - 0.00 in0.0 mm 0.00 in0.0 mm
01:40 AM 18.8°F-7.3°C 10.3°F-12.1°C 69% 2.3 mph N3.7 kmh N 4.6 mph7.4 kmh 30.79 in1042.7 mb - 0.00 in0.0 mm 0.00 in0.0 mm
01:30 AM 18.9°F-7.3°C 10.4°F-12.0°C 69% 2.3 mph N3.7 kmh N 3.5 mph5.6 kmh 30.79 in1042.7 mb - 0.00 in0.0 mm 0.00 in0.0 mm
01:20 AM 19.0°F-7.2°C 10.5°F-11.9°C 69% 2.3 mph N3.7 kmh N 3.5 mph5.6 kmh 30.79 in1042.7 mb - 0.00 in0.0 mm 0.00 in0.0 mm
01:10 AM 19.2°F-7.1°C 10.4°F-12.0°C 68% 2.3 mph N3.7 kmh N 3.5 mph5.6 kmh 30.79 in1042.7 mb - 0.00 in0.0 mm 0.00 in0.0 mm
01:00 AM 19.3°F-7.1°C 10.2°F-12.1°C 67% 3.5 mph N5.6 kmh N 3.5 mph5.6 kmh 30.79 in1042.7 mb - 0.00 in0.0 mm 0.00 in0.0 mm
12:50 AM 19.5°F-6.9°C 10.0°F-12.2°C 66% 3.5 mph N5.6 kmh N 4.6 mph7.4 kmh 30.79 in1042.7 mb - 0.00 in0.0 mm 0.00 in0.0 mm
12:40 AM 19.7°F-6.8°C 9.8°F-12.3°C 65% 3.5 mph NNE5.6 kmh NNE 3.5 mph5.6 kmh 30.79 in1042.7 mb - 0.00 in0.0 mm 0.00 in0.0 mm
12:30 AM 19.9°F-6.7°C 9.7°F-12.4°C 64% 4.6 mph N7.4 kmh N 9.2 mph14.8 kmh 30.79 in1042.7 mb - 0.00 in0.0 mm 0.00 in0.0 mm
12:20 AM 20.1°F-6.6°C 9.5°F-12.5°C 63% 3.5 mph N5.6 kmh N 5.8 mph9.3 kmh 30.79 in1042.7 mb - 0.00 in0.0 mm 0.00 in0.0 mm
12:10 AM 20.3°F-6.5°C 9.7°F-12.4°C 63% 4.6 mph N7.4 kmh N 10.4 mph16.7 kmh 30.79 in1042.7 mb - 0.00 in0.0 mm 0.00 in0.0 mm
12:00 AM 20.5°F-6.4°C 9.5°F-12.5°C 62% 4.6 mph N7.4 kmh N 11.5 mph18.5 kmh 30.78 in1042.3 mb - 0.00 in0.0 mm 0.00 in0.0 mm